sensor_id;sensor_type;location;lat;lon;timestamp;P1;durP1;ratioP1;P2;durP2;ratioP2
18170;SDS011;9210;48.358;10.902;2023-08-24T00:01:07;11.20;;;6.70;;
18170;SDS011;9210;48.358;10.902;2023-08-24T00:03:40;16.25;;;7.00;;
18170;SDS011;9210;48.358;10.902;2023-08-24T00:06:08;10.32;;;7.00;;
18170;SDS011;9210;48.358;10.902;2023-08-24T00:08:37;12.27;;;7.03;;
18170;SDS011;9210;48.358;10.902;2023-08-24T00:11:06;11.07;;;7.90;;
18170;SDS011;9210;48.358;10.902;2023-08-24T00:13:35;11.15;;;7.35;;
18170;SDS011;9210;48.358;10.902;2023-08-24T00:16:03;15.30;;;7.53;;
18170;SDS011;9210;48.358;10.902;2023-08-24T00:18:32;13.60;;;7.22;;
18170;SDS011;9210;48.358;10.902;2023-08-24T00:21:02;11.77;;;7.28;;
18170;SDS011;9210;48.358;10.902;2023-08-24T00:23:30;10.18;;;7.53;;
18170;SDS011;9210;48.358;10.902;2023-08-24T00:26:00;10.02;;;7.15;;
18170;SDS011;9210;48.358;10.902;2023-08-24T00:28:28;13.75;;;7.53;;
18170;SDS011;9210;48.358;10.902;2023-08-24T00:30:57;12.35;;;7.55;;
18170;SDS011;9210;48.358;10.902;2023-08-24T00:33:25;14.95;;;8.07;;
18170;SDS011;9210;48.358;10.902;2023-08-24T00:35:58;11.52;;;7.13;;
18170;SDS011;9210;48.358;10.902;2023-08-24T00:38:28;9.98;;;6.85;;
18170;SDS011;9210;48.358;10.902;2023-08-24T00:40:57;11.85;;;7.60;;
18170;SDS011;9210;48.358;10.902;2023-08-24T00:43:26;10.25;;;6.90;;
18170;SDS011;9210;48.358;10.902;2023-08-24T00:45:55;16.00;;;8.18;;
18170;SDS011;9210;48.358;10.902;2023-08-24T00:48:24;12.48;;;7.68;;
18170;SDS011;9210;48.358;10.902;2023-08-24T00:50:55;14.23;;;7.90;;
18170;SDS011;9210;48.358;10.902;2023-08-24T00:53:24;10.25;;;7.25;;
18170;SDS011;9210;48.358;10.902;2023-08-24T00:55:55;11.75;;;7.03;;
18170;SDS011;9210;48.358;10.902;2023-08-24T00:58:24;10.52;;;7.43;;
18170;SDS011;9210;48.358;10.902;2023-08-24T01:00:55;10.70;;;7.80;;
18170;SDS011;9210;48.358;10.902;2023-08-24T01:03:23;12.05;;;7.78;;
18170;SDS011;9210;48.358;10.902;2023-08-24T01:05:52;11.70;;;7.75;;
18170;SDS011;9210;48.358;10.902;2023-08-24T01:08:21;12.40;;;7.05;;
18170;SDS011;9210;48.358;10.902;2023-08-24T01:10:52;12.05;;;7.70;;
18170;SDS011;9210;48.358;10.902;2023-08-24T01:13:29;13.05;;;8.05;;
18170;SDS011;9210;48.358;10.902;2023-08-24T01:16:00;10.90;;;7.50;;
18170;SDS011;9210;48.358;10.902;2023-08-24T01:18:32;12.20;;;8.30;;
18170;SDS011;9210;48.358;10.902;2023-08-24T01:21:02;12.10;;;8.10;;
18170;SDS011;9210;48.358;10.902;2023-08-24T01:23:36;12.98;;;7.63;;
18170;SDS011;9210;48.358;10.902;2023-08-24T01:26:12;14.02;;;7.68;;
18170;SDS011;9210;48.358;10.902;2023-08-24T01:28:42;13.20;;;8.10;;
18170;SDS011;9210;48.358;10.902;2023-08-24T01:31:12;10.77;;;8.00;;
18170;SDS011;9210;48.358;10.902;2023-08-24T01:33:43;16.83;;;8.48;;
18170;SDS011;9210;48.358;10.902;2023-08-24T01:36:13;12.93;;;7.95;;
18170;SDS011;9210;48.358;10.902;2023-08-24T01:38:43;12.15;;;8.35;;
18170;SDS011;9210;48.358;10.902;2023-08-24T01:41:15;12.85;;;8.45;;
18170;SDS011;9210;48.358;10.902;2023-08-24T01:43:49;11.85;;;8.15;;
18170;SDS011;9210;48.358;10.902;2023-08-24T01:46:20;13.70;;;8.18;;
18170;SDS011;9210;48.358;10.902;2023-08-24T01:48:49;12.13;;;8.63;;
18170;SDS011;9210;48.358;10.902;2023-08-24T01:51:19;11.73;;;7.80;;
18170;SDS011;9210;48.358;10.902;2023-08-24T01:53:47;14.60;;;8.02;;
18170;SDS011;9210;48.358;10.902;2023-08-24T01:56:18;16.45;;;9.18;;
18170;SDS011;9210;48.358;10.902;2023-08-24T01:58:46;15.18;;;9.35;;
18170;SDS011;9210;48.358;10.902;2023-08-24T02:01:15;15.07;;;8.43;;
18170;SDS011;9210;48.358;10.902;2023-08-24T02:03:43;12.95;;;8.52;;
18170;SDS011;9210;48.358;10.902;2023-08-24T02:06:12;11.98;;;8.60;;
18170;SDS011;9210;48.358;10.902;2023-08-24T02:08:41;15.52;;;9.27;;
18170;SDS011;9210;48.358;10.902;2023-08-24T02:11:11;20.85;;;9.50;;
18170;SDS011;9210;48.358;10.902;2023-08-24T02:13:41;14.38;;;8.93;;
18170;SDS011;9210;48.358;10.902;2023-08-24T02:16:09;12.40;;;8.93;;
18170;SDS011;9210;48.358;10.902;2023-08-24T02:18:38;14.70;;;8.05;;
18170;SDS011;9210;48.358;10.902;2023-08-24T02:21:08;11.98;;;8.65;;
18170;SDS011;9210;48.358;10.902;2023-08-24T02:23:39;13.60;;;8.90;;
18170;SDS011;9210;48.358;10.902;2023-08-24T02:26:08;13.20;;;9.02;;
18170;SDS011;9210;48.358;10.902;2023-08-24T02:28:37;12.20;;;8.30;;
18170;SDS011;9210;48.358;10.902;2023-08-24T02:31:07;13.52;;;8.13;;
18170;SDS011;9210;48.358;10.902;2023-08-24T02:33:35;14.15;;;8.23;;
18170;SDS011;9210;48.358;10.902;2023-08-24T02:36:04;10.52;;;7.90;;
18170;SDS011;9210;48.358;10.902;2023-08-24T02:38:32;12.60;;;8.48;;
18170;SDS011;9210;48.358;10.902;2023-08-24T02:41:01;12.13;;;8.60;;
18170;SDS011;9210;48.358;10.902;2023-08-24T02:43:30;13.25;;;9.02;;
18170;SDS011;9210;48.358;10.902;2023-08-24T02:45:59;18.23;;;9.65;;
18170;SDS011;9210;48.358;10.902;2023-08-24T02:48:31;13.52;;;9.80;;
18170;SDS011;9210;48.358;10.902;2023-08-24T02:51:01;15.20;;;9.43;;
18170;SDS011;9210;48.358;10.902;2023-08-24T02:53:31;16.42;;;9.65;;
18170;SDS011;9210;48.358;10.902;2023-08-24T02:55:59;14.30;;;9.13;;
18170;SDS011;9210;48.358;10.902;2023-08-24T02:58:28;14.95;;;10.15;;
18170;SDS011;9210;48.358;10.902;2023-08-24T03:00:58;15.48;;;9.32;;
18170;SDS011;9210;48.358;10.902;2023-08-24T03:03:26;13.70;;;9.77;;
18170;SDS011;9210;48.358;10.902;2023-08-24T03:05:58;14.48;;;8.43;;
18170;SDS011;9210;48.358;10.902;2023-08-24T03:08:28;17.27;;;9.50;;
18170;SDS011;9210;48.358;10.902;2023-08-24T03:10:57;16.33;;;9.48;;
18170;SDS011;9210;48.358;10.902;2023-08-24T03:13:26;14.25;;;10.15;;
18170;SDS011;9210;48.358;10.902;2023-08-24T03:15:54;16.48;;;10.00;;
18170;SDS011;9210;48.358;10.902;2023-08-24T03:18:27;15.85;;;9.32;;
18170;SDS011;9210;48.358;10.902;2023-08-24T03:20:55;16.92;;;9.90;;
18170;SDS011;9210;48.358;10.902;2023-08-24T03:23:25;17.25;;;10.27;;
18170;SDS011;9210;48.358;10.902;2023-08-24T03:25:54;15.52;;;10.90;;
18170;SDS011;9210;48.358;10.902;2023-08-24T03:28:24;16.25;;;10.48;;
18170;SDS011;9210;48.358;10.902;2023-08-24T03:30:53;15.32;;;10.82;;
18170;SDS011;9210;48.358;10.902;2023-08-24T03:33:22;19.00;;;10.75;;
18170;SDS011;9210;48.358;10.902;2023-08-24T03:35:51;18.83;;;11.35;;
18170;SDS011;9210;48.358;10.902;2023-08-24T03:38:19;16.35;;;11.60;;
18170;SDS011;9210;48.358;10.902;2023-08-24T03:40:51;15.43;;;11.32;;
18170;SDS011;9210;48.358;10.902;2023-08-24T03:43:19;20.02;;;11.98;;
18170;SDS011;9210;48.358;10.902;2023-08-24T03:45:48;18.58;;;10.85;;
18170;SDS011;9210;48.358;10.902;2023-08-24T03:48:16;18.33;;;11.35;;
18170;SDS011;9210;48.358;10.902;2023-08-24T03:50:46;14.70;;;10.00;;
18170;SDS011;9210;48.358;10.902;2023-08-24T03:53:14;17.60;;;11.10;;
18170;SDS011;9210;48.358;10.902;2023-08-24T03:55:46;17.67;;;10.40;;
18170;SDS011;9210;48.358;10.902;2023-08-24T03:58:18;23.02;;;11.40;;
18170;SDS011;9210;48.358;10.902;2023-08-24T04:00:47;16.20;;;10.38;;
18170;SDS011;9210;48.358;10.902;2023-08-24T04:03:16;16.40;;;10.32;;
18170;SDS011;9210;48.358;10.902;2023-08-24T04:05:44;18.25;;;10.60;;
18170;SDS011;9210;48.358;10.902;2023-08-24T04:08:13;15.60;;;9.93;;
18170;SDS011;9210;48.358;10.902;2023-08-24T04:10:42;13.85;;;9.88;;
18170;SDS011;9210;48.358;10.902;2023-08-24T04:13:11;14.75;;;9.43;;
18170;SDS011;9210;48.358;10.902;2023-08-24T04:15:41;17.13;;;10.43;;
18170;SDS011;9210;48.358;10.902;2023-08-24T04:18:10;14.35;;;9.48;;
18170;SDS011;9210;48.358;10.902;2023-08-24T04:20:38;16.42;;;10.88;;
18170;SDS011;9210;48.358;10.902;2023-08-24T04:23:07;14.27;;;9.55;;
18170;SDS011;9210;48.358;10.902;2023-08-24T04:25:38;15.05;;;10.48;;
18170;SDS011;9210;48.358;10.902;2023-08-24T04:28:07;13.25;;;9.00;;
18170;SDS011;9210;48.358;10.902;2023-08-24T04:30:36;14.10;;;9.20;;
18170;SDS011;9210;48.358;10.902;2023-08-24T04:33:07;15.93;;;9.57;;
18170;SDS011;9210;48.358;10.902;2023-08-24T04:35:36;14.57;;;9.90;;
18170;SDS011;9210;48.358;10.902;2023-08-24T04:38:04;16.40;;;9.98;;
18170;SDS011;9210;48.358;10.902;2023-08-24T04:40:44;12.52;;;8.60;;
18170;SDS011;9210;48.358;10.902;2023-08-24T04:43:13;13.68;;;9.02;;
18170;SDS011;9210;48.358;10.902;2023-08-24T04:45:41;16.60;;;10.00;;
18170;SDS011;9210;48.358;10.902;2023-08-24T04:48:11;13.88;;;9.45;;
18170;SDS011;9210;48.358;10.902;2023-08-24T04:50:41;16.75;;;10.45;;
18170;SDS011;9210;48.358;10.902;2023-08-24T04:53:13;12.75;;;9.13;;
18170;SDS011;9210;48.358;10.902;2023-08-24T04:55:42;14.43;;;9.32;;
18170;SDS011;9210;48.358;10.902;2023-08-24T04:58:11;17.75;;;10.30;;
18170;SDS011;9210;48.358;10.902;2023-08-24T05:00:40;12.95;;;9.23;;
18170;SDS011;9210;48.358;10.902;2023-08-24T05:03:08;15.75;;;9.40;;
18170;SDS011;9210;48.358;10.902;2023-08-24T05:05:38;16.42;;;9.82;;
18170;SDS011;9210;48.358;10.902;2023-08-24T05:08:07;14.38;;;9.50;;
18170;SDS011;9210;48.358;10.902;2023-08-24T05:10:39;12.48;;;8.88;;
18170;SDS011;9210;48.358;10.902;2023-08-24T05:13:07;16.50;;;10.52;;
18170;SDS011;9210;48.358;10.902;2023-08-24T05:15:36;16.58;;;9.38;;
18170;SDS011;9210;48.358;10.902;2023-08-24T05:18:05;15.90;;;10.23;;
18170;SDS011;9210;48.358;10.902;2023-08-24T05:20:33;12.15;;;8.80;;
18170;SDS011;9210;48.358;10.902;2023-08-24T05:23:03;16.80;;;9.38;;
18170;SDS011;9210;48.358;10.902;2023-08-24T05:25:32;13.20;;;9.13;;
18170;SDS011;9210;48.358;10.902;2023-08-24T05:28:00;17.67;;;9.63;;
18170;SDS011;9210;48.358;10.902;2023-08-24T05:30:29;11.13;;;8.85;;
18170;SDS011;9210;48.358;10.902;2023-08-24T05:32:58;13.82;;;8.52;;
18170;SDS011;9210;48.358;10.902;2023-08-24T05:35:26;16.20;;;7.97;;
18170;SDS011;9210;48.358;10.902;2023-08-24T05:37:55;16.92;;;9.02;;
18170;SDS011;9210;48.358;10.902;2023-08-24T05:40:25;15.63;;;9.30;;
18170;SDS011;9210;48.358;10.902;2023-08-24T05:42:53;12.00;;;8.55;;
18170;SDS011;9210;48.358;10.902;2023-08-24T05:45:22;15.82;;;9.55;;
18170;SDS011;9210;48.358;10.902;2023-08-24T05:47:52;13.13;;;8.68;;
18170;SDS011;9210;48.358;10.902;2023-08-24T05:50:21;14.15;;;9.05;;
18170;SDS011;9210;48.358;10.902;2023-08-24T05:52:49;17.17;;;9.10;;
18170;SDS011;9210;48.358;10.902;2023-08-24T05:55:18;14.02;;;8.25;;
18170;SDS011;9210;48.358;10.902;2023-08-24T05:57:48;15.73;;;8.95;;
18170;SDS011;9210;48.358;10.902;2023-08-24T06:00:16;15.32;;;8.70;;
18170;SDS011;9210;48.358;10.902;2023-08-24T06:02:45;11.38;;;8.15;;
18170;SDS011;9210;48.358;10.902;2023-08-24T06:05:14;17.77;;;8.60;;
18170;SDS011;9210;48.358;10.902;2023-08-24T06:07:44;12.35;;;8.85;;
18170;SDS011;9210;48.358;10.902;2023-08-24T06:10:13;15.82;;;8.90;;
18170;SDS011;9210;48.358;10.902;2023-08-24T06:12:41;13.77;;;8.43;;
18170;SDS011;9210;48.358;10.902;2023-08-24T06:15:11;14.65;;;8.73;;
18170;SDS011;9210;48.358;10.902;2023-08-24T06:17:40;14.85;;;8.30;;
18170;SDS011;9210;48.358;10.902;2023-08-24T06:20:10;12.68;;;7.80;;
18170;SDS011;9210;48.358;10.902;2023-08-24T06:22:39;15.15;;;8.30;;
18170;SDS011;9210;48.358;10.902;2023-08-24T06:25:08;12.77;;;8.45;;
18170;SDS011;9210;48.358;10.902;2023-08-24T06:27:37;12.13;;;8.38;;
18170;SDS011;9210;48.358;10.902;2023-08-24T06:30:06;14.23;;;8.23;;
18170;SDS011;9210;48.358;10.902;2023-08-24T06:32:36;13.98;;;7.15;;
18170;SDS011;9210;48.358;10.902;2023-08-24T06:35:05;14.75;;;7.40;;
18170;SDS011;9210;48.358;10.902;2023-08-24T06:37:33;11.88;;;6.95;;
18170;SDS011;9210;48.358;10.902;2023-08-24T06:40:02;11.20;;;7.20;;
18170;SDS011;9210;48.358;10.902;2023-08-24T06:42:31;11.30;;;6.60;;
18170;SDS011;9210;48.358;10.902;2023-08-24T06:45:00;12.52;;;6.60;;
18170;SDS011;9210;48.358;10.902;2023-08-24T06:47:29;13.63;;;6.70;;
18170;SDS011;9210;48.358;10.902;2023-08-24T06:49:58;12.73;;;6.72;;
18170;SDS011;9210;48.358;10.902;2023-08-24T06:52:27;10.13;;;6.28;;
18170;SDS011;9210;48.358;10.902;2023-08-24T06:54:56;9.40;;;5.68;;
18170;SDS011;9210;48.358;10.902;2023-08-24T06:57:24;11.70;;;6.70;;
18170;SDS011;9210;48.358;10.902;2023-08-24T06:59:53;10.02;;;6.55;;
18170;SDS011;9210;48.358;10.902;2023-08-24T07:02:22;9.63;;;6.25;;
18170;SDS011;9210;48.358;10.902;2023-08-24T07:04:50;14.15;;;6.80;;
18170;SDS011;9210;48.358;10.902;2023-08-24T07:07:20;11.93;;;5.47;;
18170;SDS011;9210;48.358;10.902;2023-08-24T07:09:49;11.77;;;6.15;;
18170;SDS011;9210;48.358;10.902;2023-08-24T07:12:17;8.82;;;5.90;;
18170;SDS011;9210;48.358;10.902;2023-08-24T07:14:46;9.75;;;5.60;;
18170;SDS011;9210;48.358;10.902;2023-08-24T07:17:14;7.93;;;5.18;;
18170;SDS011;9210;48.358;10.902;2023-08-24T07:19:43;11.55;;;5.38;;
18170;SDS011;9210;48.358;10.902;2023-08-24T07:22:11;9.77;;;5.38;;
18170;SDS011;9210;48.358;10.902;2023-08-24T07:24:41;9.63;;;5.38;;
18170;SDS011;9210;48.358;10.902;2023-08-24T07:27:12;7.95;;;5.63;;
18170;SDS011;9210;48.358;10.902;2023-08-24T07:29:40;9.25;;;5.60;;
18170;SDS011;9210;48.358;10.902;2023-08-24T07:32:08;8.70;;;5.70;;
18170;SDS011;9210;48.358;10.902;2023-08-24T07:34:37;11.60;;;6.28;;
18170;SDS011;9210;48.358;10.902;2023-08-24T07:37:06;15.05;;;6.43;;
18170;SDS011;9210;48.358;10.902;2023-08-24T07:39:34;10.02;;;6.00;;
18170;SDS011;9210;48.358;10.902;2023-08-24T07:42:04;10.07;;;5.82;;
18170;SDS011;9210;48.358;10.902;2023-08-24T07:44:33;13.18;;;7.38;;
18170;SDS011;9210;48.358;10.902;2023-08-24T07:47:02;11.15;;;7.03;;
18170;SDS011;9210;48.358;10.902;2023-08-24T07:49:30;10.90;;;6.68;;
18170;SDS011;9210;48.358;10.902;2023-08-24T07:51:59;11.68;;;7.22;;
18170;SDS011;9210;48.358;10.902;2023-08-24T07:54:28;12.52;;;6.57;;
18170;SDS011;9210;48.358;10.902;2023-08-24T07:56:56;11.85;;;6.82;;
18170;SDS011;9210;48.358;10.902;2023-08-24T07:59:26;12.82;;;6.95;;
18170;SDS011;9210;48.358;10.902;2023-08-24T08:01:55;9.20;;;6.30;;
18170;SDS011;9210;48.358;10.902;2023-08-24T08:04:23;10.52;;;6.63;;
18170;SDS011;9210;48.358;10.902;2023-08-24T08:06:52;13.90;;;7.40;;
18170;SDS011;9210;48.358;10.902;2023-08-24T08:09:22;11.57;;;6.70;;
18170;SDS011;9210;48.358;10.902;2023-08-24T08:11:50;11.70;;;7.53;;
18170;SDS011;9210;48.358;10.902;2023-08-24T08:14:20;10.38;;;6.72;;
18170;SDS011;9210;48.358;10.902;2023-08-24T08:16:51;11.85;;;6.80;;
18170;SDS011;9210;48.358;10.902;2023-08-24T08:19:21;10.85;;;7.07;;
18170;SDS011;9210;48.358;10.902;2023-08-24T08:21:51;11.77;;;6.93;;
18170;SDS011;9210;48.358;10.902;2023-08-24T08:24:20;13.85;;;7.30;;
18170;SDS011;9210;48.358;10.902;2023-08-24T08:26:51;13.90;;;6.97;;
18170;SDS011;9210;48.358;10.902;2023-08-24T08:29:20;11.38;;;6.93;;
18170;SDS011;9210;48.358;10.902;2023-08-24T08:31:50;11.10;;;6.75;;
18170;SDS011;9210;48.358;10.902;2023-08-24T08:34:19;13.38;;;7.15;;
18170;SDS011;9210;48.358;10.902;2023-08-24T08:36:47;12.05;;;7.28;;
18170;SDS011;9210;48.358;10.902;2023-08-24T08:39:16;12.27;;;7.15;;
18170;SDS011;9210;48.358;10.902;2023-08-24T08:41:46;12.13;;;6.60;;
18170;SDS011;9210;48.358;10.902;2023-08-24T08:44:15;10.50;;;7.32;;
18170;SDS011;9210;48.358;10.902;2023-08-24T08:46:43;15.70;;;7.25;;
18170;SDS011;9210;48.358;10.902;2023-08-24T08:49:16;14.27;;;7.50;;
18170;SDS011;9210;48.358;10.902;2023-08-24T08:51:45;14.50;;;7.57;;
18170;SDS011;9210;48.358;10.902;2023-08-24T08:54:14;12.63;;;7.43;;
18170;SDS011;9210;48.358;10.902;2023-08-24T08:56:43;13.98;;;7.53;;
18170;SDS011;9210;48.358;10.902;2023-08-24T08:59:12;13.65;;;8.23;;
18170;SDS011;9210;48.358;10.902;2023-08-24T09:01:42;21.35;;;8.13;;
18170;SDS011;9210;48.358;10.902;2023-08-24T09:04:15;14.15;;;8.40;;
18170;SDS011;9210;48.358;10.902;2023-08-24T09:06:44;13.75;;;7.88;;
18170;SDS011;9210;48.358;10.902;2023-08-24T09:09:12;11.95;;;7.70;;
18170;SDS011;9210;48.358;10.902;2023-08-24T09:11:41;12.82;;;7.78;;
18170;SDS011;9210;48.358;10.902;2023-08-24T09:14:13;16.20;;;8.45;;
18170;SDS011;9210;48.358;10.902;2023-08-24T09:16:42;14.27;;;8.25;;
18170;SDS011;9210;48.358;10.902;2023-08-24T09:19:11;12.95;;;7.93;;
18170;SDS011;9210;48.358;10.902;2023-08-24T09:21:41;16.05;;;8.07;;
18170;SDS011;9210;48.358;10.902;2023-08-24T09:24:10;13.38;;;7.95;;
18170;SDS011;9210;48.358;10.902;2023-08-24T09:26:39;12.73;;;8.30;;
18170;SDS011;9210;48.358;10.902;2023-08-24T09:29:12;13.77;;;8.23;;
18170;SDS011;9210;48.358;10.902;2023-08-24T09:31:42;15.20;;;7.88;;
18170;SDS011;9210;48.358;10.902;2023-08-24T09:34:11;14.07;;;7.70;;
18170;SDS011;9210;48.358;10.902;2023-08-24T09:36:42;13.55;;;7.50;;
18170;SDS011;9210;48.358;10.902;2023-08-24T09:39:16;12.90;;;8.43;;
18170;SDS011;9210;48.358;10.902;2023-08-24T09:41:46;13.65;;;7.88;;
18170;SDS011;9210;48.358;10.902;2023-08-24T09:44:16;15.57;;;9.02;;
18170;SDS011;9210;48.358;10.902;2023-08-24T09:46:45;13.30;;;8.25;;
18170;SDS011;9210;48.358;10.902;2023-08-24T09:49:13;12.15;;;7.43;;
18170;SDS011;9210;48.358;10.902;2023-08-24T09:51:46;14.80;;;8.10;;
18170;SDS011;9210;48.358;10.902;2023-08-24T09:54:15;10.77;;;7.68;;
18170;SDS011;9210;48.358;10.902;2023-08-24T09:56:47;13.10;;;8.15;;
18170;SDS011;9210;48.358;10.902;2023-08-24T09:59:17;15.52;;;8.40;;
18170;SDS011;9210;48.358;10.902;2023-08-24T10:01:48;12.40;;;7.75;;
18170;SDS011;9210;48.358;10.902;2023-08-24T10:04:21;14.13;;;7.30;;
18170;SDS011;9210;48.358;10.902;2023-08-24T10:06:54;13.25;;;7.65;;
18170;SDS011;9210;48.358;10.902;2023-08-24T10:09:25;11.60;;;7.90;;
18170;SDS011;9210;48.358;10.902;2023-08-24T10:11:55;13.57;;;7.88;;
18170;SDS011;9210;48.358;10.902;2023-08-24T10:14:26;15.27;;;7.63;;
18170;SDS011;9210;48.358;10.902;2023-08-24T10:16:55;9.88;;;6.85;;
18170;SDS011;9210;48.358;10.902;2023-08-24T10:19:24;10.80;;;7.32;;
18170;SDS011;9210;48.358;10.902;2023-08-24T10:21:54;12.75;;;6.72;;
18170;SDS011;9210;48.358;10.902;2023-08-24T10:24:23;10.73;;;6.28;;
18170;SDS011;9210;48.358;10.902;2023-08-24T10:26:52;9.63;;;5.55;;
18170;SDS011;9210;48.358;10.902;2023-08-24T10:29:21;9.23;;;6.30;;
18170;SDS011;9210;48.358;10.902;2023-08-24T10:31:50;7.47;;;5.60;;
18170;SDS011;9210;48.358;10.902;2023-08-24T10:34:19;11.05;;;5.95;;
18170;SDS011;9210;48.358;10.902;2023-08-24T10:36:48;10.05;;;5.95;;
18170;SDS011;9210;48.358;10.902;2023-08-24T10:39:22;10.05;;;6.20;;
18170;SDS011;9210;48.358;10.902;2023-08-24T10:41:55;11.15;;;6.07;;
18170;SDS011;9210;48.358;10.902;2023-08-24T10:44:24;9.20;;;5.13;;
18170;SDS011;9210;48.358;10.902;2023-08-24T10:47:05;10.77;;;5.68;;
18170;SDS011;9210;48.358;10.902;2023-08-24T10:49:34;10.00;;;5.28;;
18170;SDS011;9210;48.358;10.902;2023-08-24T10:52:20;7.30;;;4.82;;
18170;SDS011;9210;48.358;10.902;2023-08-24T10:54:51;9.02;;;4.95;;
18170;SDS011;9210;48.358;10.902;2023-08-24T10:57:21;6.47;;;4.75;;
18170;SDS011;9210;48.358;10.902;2023-08-24T11:00:01;7.25;;;5.38;;
18170;SDS011;9210;48.358;10.902;2023-08-24T11:02:41;9.63;;;5.10;;
18170;SDS011;9210;48.358;10.902;2023-08-24T11:05:19;12.32;;;5.70;;
18170;SDS011;9210;48.358;10.902;2023-08-24T11:07:53;11.38;;;5.25;;
18170;SDS011;9210;48.358;10.902;2023-08-24T11:10:34;8.43;;;5.18;;
18170;SDS011;9210;48.358;10.902;2023-08-24T11:13:12;7.78;;;4.97;;
18170;SDS011;9210;48.358;10.902;2023-08-24T11:15:41;6.82;;;4.15;;
18170;SDS011;9210;48.358;10.902;2023-08-24T11:18:13;6.38;;;4.43;;
18170;SDS011;9210;48.358;10.902;2023-08-24T11:20:43;7.65;;;4.97;;
18170;SDS011;9210;48.358;10.902;2023-08-24T11:23:12;9.48;;;4.95;;
18170;SDS011;9210;48.358;10.902;2023-08-24T11:25:43;6.47;;;4.45;;
18170;SDS011;9210;48.358;10.902;2023-08-24T11:28:16;8.77;;;4.50;;
18170;SDS011;9210;48.358;10.902;2023-08-24T11:30:45;7.00;;;4.40;;
18170;SDS011;9210;48.358;10.902;2023-08-24T11:33:14;9.07;;;4.38;;
18170;SDS011;9210;48.358;10.902;2023-08-24T11:35:44;11.50;;;5.10;;
18170;SDS011;9210;48.358;10.902;2023-08-24T11:38:13;8.65;;;4.85;;
18170;SDS011;9210;48.358;10.902;2023-08-24T11:40:43;11.23;;;4.90;;
18170;SDS011;9210;48.358;10.902;2023-08-24T11:43:11;8.27;;;4.60;;
18170;SDS011;9210;48.358;10.902;2023-08-24T11:45:40;12.68;;;4.75;;
18170;SDS011;9210;48.358;10.902;2023-08-24T11:48:08;11.90;;;4.97;;
18170;SDS011;9210;48.358;10.902;2023-08-24T11:50:38;8.30;;;4.68;;
18170;SDS011;9210;48.358;10.902;2023-08-24T11:53:06;6.82;;;4.65;;
18170;SDS011;9210;48.358;10.902;2023-08-24T11:55:39;9.57;;;5.03;;
18170;SDS011;9210;48.358;10.902;2023-08-24T11:58:26;11.55;;;5.20;;
18170;SDS011;9210;48.358;10.902;2023-08-24T12:00:57;7.28;;;4.90;;
18170;SDS011;9210;48.358;10.902;2023-08-24T12:03:26;10.32;;;5.07;;
18170;SDS011;9210;48.358;10.902;2023-08-24T12:05:58;8.88;;;4.70;;
18170;SDS011;9210;48.358;10.902;2023-08-24T12:08:27;9.55;;;4.45;;
18170;SDS011;9210;48.358;10.902;2023-08-24T12:10:56;10.10;;;4.72;;
18170;SDS011;9210;48.358;10.902;2023-08-24T12:13:24;11.10;;;5.03;;
18170;SDS011;9210;48.358;10.902;2023-08-24T12:15:54;11.43;;;4.63;;
18170;SDS011;9210;48.358;10.902;2023-08-24T12:18:27;8.88;;;4.90;;
18170;SDS011;9210;48.358;10.902;2023-08-24T12:20:59;11.63;;;4.68;;
18170;SDS011;9210;48.358;10.902;2023-08-24T12:23:28;11.77;;;5.07;;
18170;SDS011;9210;48.358;10.902;2023-08-24T12:25:57;8.55;;;4.60;;
18170;SDS011;9210;48.358;10.902;2023-08-24T12:28:25;8.57;;;4.53;;
18170;SDS011;9210;48.358;10.902;2023-08-24T12:30:55;10.80;;;5.00;;
18170;SDS011;9210;48.358;10.902;2023-08-24T12:33:27;11.25;;;4.78;;
18170;SDS011;9210;48.358;10.902;2023-08-24T12:35:55;9.20;;;4.60;;
18170;SDS011;9210;48.358;10.902;2023-08-24T12:38:25;7.88;;;4.45;;
18170;SDS011;9210;48.358;10.902;2023-08-24T12:40:54;8.82;;;4.63;;
18170;SDS011;9210;48.358;10.902;2023-08-24T12:43:22;8.57;;;4.63;;
18170;SDS011;9210;48.358;10.902;2023-08-24T12:45:51;11.40;;;4.35;;
18170;SDS011;9210;48.358;10.902;2023-08-24T12:48:21;8.40;;;4.70;;
18170;SDS011;9210;48.358;10.902;2023-08-24T12:50:50;8.95;;;4.60;;
18170;SDS011;9210;48.358;10.902;2023-08-24T12:53:18;11.02;;;4.85;;
18170;SDS011;9210;48.358;10.902;2023-08-24T12:55:47;9.40;;;4.55;;
18170;SDS011;9210;48.358;10.902;2023-08-24T12:58:15;8.80;;;4.47;;
18170;SDS011;9210;48.358;10.902;2023-08-24T13:00:44;11.98;;;4.85;;
18170;SDS011;9210;48.358;10.902;2023-08-24T13:03:13;9.95;;;4.70;;
18170;SDS011;9210;48.358;10.902;2023-08-24T13:05:43;8.38;;;3.85;;
18170;SDS011;9210;48.358;10.902;2023-08-24T13:08:11;5.88;;;4.70;;
18170;SDS011;9210;48.358;10.902;2023-08-24T13:10:41;12.50;;;4.55;;
18170;SDS011;9210;48.358;10.902;2023-08-24T13:13:09;11.95;;;4.97;;
18170;SDS011;9210;48.358;10.902;2023-08-24T13:15:39;8.32;;;4.88;;
18170;SDS011;9210;48.358;10.902;2023-08-24T13:18:07;12.43;;;4.90;;
18170;SDS011;9210;48.358;10.902;2023-08-24T13:20:36;12.00;;;4.45;;
18170;SDS011;9210;48.358;10.902;2023-08-24T13:23:06;8.65;;;4.53;;
18170;SDS011;9210;48.358;10.902;2023-08-24T13:25:35;10.40;;;4.72;;
18170;SDS011;9210;48.358;10.902;2023-08-24T13:28:06;9.82;;;4.65;;
18170;SDS011;9210;48.358;10.902;2023-08-24T13:30:34;16.98;;;4.57;;
18170;SDS011;9210;48.358;10.902;2023-08-24T13:33:03;9.35;;;5.07;;
18170;SDS011;9210;48.358;10.902;2023-08-24T13:35:33;13.00;;;4.70;;
18170;SDS011;9210;48.358;10.902;2023-08-24T13:38:02;9.65;;;4.63;;
18170;SDS011;9210;48.358;10.902;2023-08-24T13:40:32;11.90;;;4.45;;
18170;SDS011;9210;48.358;10.902;2023-08-24T13:43:09;7.82;;;4.00;;
18170;SDS011;9210;48.358;10.902;2023-08-24T13:45:39;9.13;;;4.63;;
18170;SDS011;9210;48.358;10.902;2023-08-24T13:48:08;12.45;;;4.32;;
18170;SDS011;9210;48.358;10.902;2023-08-24T13:50:37;10.07;;;4.10;;
18170;SDS011;9210;48.358;10.902;2023-08-24T13:53:05;13.73;;;4.45;;
18170;SDS011;9210;48.358;10.902;2023-08-24T13:55:35;9.13;;;4.30;;
18170;SDS011;9210;48.358;10.902;2023-08-24T13:58:04;8.32;;;4.22;;
18170;SDS011;9210;48.358;10.902;2023-08-24T14:00:33;14.00;;;4.50;;
18170;SDS011;9210;48.358;10.902;2023-08-24T14:03:02;7.70;;;4.03;;
18170;SDS011;9210;48.358;10.902;2023-08-24T14:05:31;9.27;;;3.97;;
18170;SDS011;9210;48.358;10.902;2023-08-24T14:07:59;11.48;;;4.45;;
18170;SDS011;9210;48.358;10.902;2023-08-24T14:10:28;9.82;;;4.20;;
18170;SDS011;9210;48.358;10.902;2023-08-24T14:12:59;10.30;;;3.92;;
18170;SDS011;9210;48.358;10.902;2023-08-24T14:15:27;12.27;;;4.18;;
18170;SDS011;9210;48.358;10.902;2023-08-24T14:17:56;15.93;;;5.05;;
18170;SDS011;9210;48.358;10.902;2023-08-24T14:20:24;7.70;;;4.10;;
18170;SDS011;9210;48.358;10.902;2023-08-24T14:22:54;7.35;;;4.03;;
18170;SDS011;9210;48.358;10.902;2023-08-24T14:25:22;12.45;;;4.72;;
18170;SDS011;9210;48.358;10.902;2023-08-24T14:27:51;9.68;;;4.65;;
18170;SDS011;9210;48.358;10.902;2023-08-24T14:30:32;15.25;;;4.55;;
18170;SDS011;9210;48.358;10.902;2023-08-24T14:33:01;16.75;;;4.80;;
18170;SDS011;9210;48.358;10.902;2023-08-24T14:35:29;11.75;;;4.50;;
18170;SDS011;9210;48.358;10.902;2023-08-24T14:37:59;12.38;;;4.90;;
18170;SDS011;9210;48.358;10.902;2023-08-24T14:40:28;10.23;;;4.30;;
18170;SDS011;9210;48.358;10.902;2023-08-24T14:42:56;20.08;;;4.70;;
18170;SDS011;9210;48.358;10.902;2023-08-24T14:45:25;7.75;;;4.40;;
18170;SDS011;9210;48.358;10.902;2023-08-24T14:47:55;13.65;;;4.70;;
18170;SDS011;9210;48.358;10.902;2023-08-24T14:50:24;13.60;;;4.32;;